sensor_id;sensor_type;location;lat;lon;timestamp;P1;durP1;ratioP1;P2;durP2;ratioP2
53753;SDS011;39667;52.274;20.964;2022-11-15T00:00:17;16.90;;;15.10;;
53753;SDS011;39667;52.274;20.964;2022-11-15T00:03:02;17.60;;;15.20;;
53753;SDS011;39667;52.274;20.964;2022-11-15T00:05:47;18.10;;;16.20;;
53753;SDS011;39667;52.274;20.964;2022-11-15T00:08:32;18.20;;;15.60;;
53753;SDS011;39667;52.274;20.964;2022-11-15T00:11:18;17.00;;;15.10;;
53753;SDS011;39667;52.274;20.964;2022-11-15T00:14:02;18.40;;;15.70;;
53753;SDS011;39667;52.274;20.964;2022-11-15T00:16:47;19.30;;;17.10;;
53753;SDS011;39667;52.274;20.964;2022-11-15T00:19:32;17.90;;;15.20;;
53753;SDS011;39667;52.274;20.964;2022-11-15T00:22:17;18.10;;;15.70;;
53753;SDS011;39667;52.274;20.964;2022-11-15T00:25:02;20.50;;;17.20;;
53753;SDS011;39667;52.274;20.964;2022-11-15T00:27:47;19.80;;;17.70;;
53753;SDS011;39667;52.274;20.964;2022-11-15T00:30:32;19.90;;;17.40;;
53753;SDS011;39667;52.274;20.964;2022-11-15T00:33:17;20.90;;;17.80;;
53753;SDS011;39667;52.274;20.964;2022-11-15T00:36:03;19.10;;;17.20;;
53753;SDS011;39667;52.274;20.964;2022-11-15T00:38:49;21.30;;;17.80;;
53753;SDS011;39667;52.274;20.964;2022-11-15T00:41:34;20.60;;;18.10;;
53753;SDS011;39667;52.274;20.964;2022-11-15T00:44:18;19.50;;;17.40;;
53753;SDS011;39667;52.274;20.964;2022-11-15T00:47:03;21.60;;;18.50;;
53753;SDS011;39667;52.274;20.964;2022-11-15T00:49:48;21.00;;;18.70;;
53753;SDS011;39667;52.274;20.964;2022-11-15T00:52:32;21.90;;;18.40;;
53753;SDS011;39667;52.274;20.964;2022-11-15T00:55:17;19.90;;;17.70;;
53753;SDS011;39667;52.274;20.964;2022-11-15T00:58:03;20.20;;;17.90;;
53753;SDS011;39667;52.274;20.964;2022-11-15T01:00:48;22.50;;;18.80;;
53753;SDS011;39667;52.274;20.964;2022-11-15T01:03:33;24.00;;;19.60;;
53753;SDS011;39667;52.274;20.964;2022-11-15T01:06:19;25.00;;;20.50;;
53753;SDS011;39667;52.274;20.964;2022-11-15T01:09:03;26.10;;;21.00;;
53753;SDS011;39667;52.274;20.964;2022-11-15T01:11:48;22.50;;;19.00;;
53753;SDS011;39667;52.274;20.964;2022-11-15T01:14:33;20.80;;;18.60;;
53753;SDS011;39667;52.274;20.964;2022-11-15T01:17:18;23.90;;;19.50;;
53753;SDS011;39667;52.274;20.964;2022-11-15T01:20:03;26.70;;;21.50;;
53753;SDS011;39667;52.274;20.964;2022-11-15T01:22:48;23.50;;;20.60;;
53753;SDS011;39667;52.274;20.964;2022-11-15T01:25:33;28.60;;;23.60;;
53753;SDS011;39667;52.274;20.964;2022-11-15T01:28:18;27.80;;;23.10;;
53753;SDS011;39667;52.274;20.964;2022-11-15T01:31:03;26.00;;;22.50;;
53753;SDS011;39667;52.274;20.964;2022-11-15T01:33:50;26.10;;;22.00;;
53753;SDS011;39667;52.274;20.964;2022-11-15T01:36:35;25.50;;;22.50;;
53753;SDS011;39667;52.274;20.964;2022-11-15T01:39:20;25.80;;;23.10;;
53753;SDS011;39667;52.274;20.964;2022-11-15T01:42:04;28.60;;;23.90;;
53753;SDS011;39667;52.274;20.964;2022-11-15T01:44:50;26.10;;;21.70;;
53753;SDS011;39667;52.274;20.964;2022-11-15T01:50:26;29.10;;;23.60;;
53753;SDS011;39667;52.274;20.964;2022-11-15T01:53:14;28.40;;;23.90;;
53753;SDS011;39667;52.274;20.964;2022-11-15T01:56:02;29.10;;;24.00;;
53753;SDS011;39667;52.274;20.964;2022-11-15T01:58:51;31.70;;;26.30;;
53753;SDS011;39667;52.274;20.964;2022-11-15T02:01:40;28.20;;;23.40;;
53753;SDS011;39667;52.274;20.964;2022-11-15T02:04:29;27.20;;;23.10;;
53753;SDS011;39667;52.274;20.964;2022-11-15T02:07:19;31.60;;;24.20;;
53753;SDS011;39667;52.274;20.964;2022-11-15T02:10:10;30.30;;;24.00;;
53753;SDS011;39667;52.274;20.964;2022-11-15T02:12:58;31.70;;;25.40;;
53753;SDS011;39667;52.274;20.964;2022-11-15T02:19:13;33.70;;;26.00;;
53753;SDS011;39667;52.274;20.964;2022-11-15T02:28:47;28.30;;;23.50;;
53753;SDS011;39667;52.274;20.964;2022-11-15T02:35:10;27.10;;;23.60;;
53753;SDS011;39667;52.274;20.964;2022-11-15T02:41:24;27.80;;;24.20;;
53753;SDS011;39667;52.274;20.964;2022-11-15T02:44:23;27.70;;;23.20;;
53753;SDS011;39667;52.274;20.964;2022-11-15T02:47:15;29.10;;;22.70;;
53753;SDS011;39667;52.274;20.964;2022-11-15T02:52:49;29.20;;;24.00;;
53753;SDS011;39667;52.274;20.964;2022-11-15T03:07:38;31.10;;;26.50;;
53753;SDS011;39667;52.274;20.964;2022-11-15T03:16:38;32.20;;;26.60;;
53753;SDS011;39667;52.274;20.964;2022-11-15T03:22:36;32.40;;;27.10;;
53753;SDS011;39667;52.274;20.964;2022-11-15T03:25:25;33.50;;;27.40;;
53753;SDS011;39667;52.274;20.964;2022-11-15T03:28:13;33.10;;;28.10;;
53753;SDS011;39667;52.274;20.964;2022-11-15T03:31:05;32.50;;;27.30;;
53753;SDS011;39667;52.274;20.964;2022-11-15T03:34:13;35.60;;;27.70;;
53753;SDS011;39667;52.274;20.964;2022-11-15T03:37:21;33.20;;;27.30;;
53753;SDS011;39667;52.274;20.964;2022-11-15T03:40:09;35.20;;;28.70;;
53753;SDS011;39667;52.274;20.964;2022-11-15T03:42:59;35.20;;;27.80;;
53753;SDS011;39667;52.274;20.964;2022-11-15T03:45:51;38.40;;;30.40;;
53753;SDS011;39667;52.274;20.964;2022-11-15T03:48:50;36.40;;;28.80;;
53753;SDS011;39667;52.274;20.964;2022-11-15T03:51:39;34.10;;;28.70;;
53753;SDS011;39667;52.274;20.964;2022-11-15T03:54:24;34.20;;;27.50;;
53753;SDS011;39667;52.274;20.964;2022-11-15T03:57:09;32.70;;;27.10;;
53753;SDS011;39667;52.274;20.964;2022-11-15T03:59:54;38.00;;;30.10;;
53753;SDS011;39667;52.274;20.964;2022-11-15T04:02:38;37.30;;;30.40;;
53753;SDS011;39667;52.274;20.964;2022-11-15T04:05:23;38.80;;;30.50;;
53753;SDS011;39667;52.274;20.964;2022-11-15T04:08:08;35.90;;;29.10;;
53753;SDS011;39667;52.274;20.964;2022-11-15T04:10:53;34.70;;;28.30;;
53753;SDS011;39667;52.274;20.964;2022-11-15T04:13:38;36.00;;;30.40;;
53753;SDS011;39667;52.274;20.964;2022-11-15T04:16:22;38.50;;;29.60;;
53753;SDS011;39667;52.274;20.964;2022-11-15T04:19:07;39.50;;;30.70;;
53753;SDS011;39667;52.274;20.964;2022-11-15T04:22:10;37.20;;;29.20;;
53753;SDS011;39667;52.274;20.964;2022-11-15T04:25:14;37.00;;;29.40;;
53753;SDS011;39667;52.274;20.964;2022-11-15T04:28:04;35.30;;;28.00;;
53753;SDS011;39667;52.274;20.964;2022-11-15T04:30:49;39.80;;;29.90;;
53753;SDS011;39667;52.274;20.964;2022-11-15T04:33:34;37.20;;;28.70;;
53753;SDS011;39667;52.274;20.964;2022-11-15T04:36:19;35.40;;;28.40;;
53753;SDS011;39667;52.274;20.964;2022-11-15T04:39:23;38.10;;;30.10;;
53753;SDS011;39667;52.274;20.964;2022-11-15T04:42:08;37.70;;;28.80;;
53753;SDS011;39667;52.274;20.964;2022-11-15T04:44:54;38.10;;;28.50;;
53753;SDS011;39667;52.274;20.964;2022-11-15T04:47:40;33.40;;;27.20;;
53753;SDS011;39667;52.274;20.964;2022-11-15T04:50:28;34.00;;;28.40;;
53753;SDS011;39667;52.274;20.964;2022-11-15T04:53:13;38.80;;;30.00;;
53753;SDS011;39667;52.274;20.964;2022-11-15T04:55:57;36.30;;;27.90;;
53753;SDS011;39667;52.274;20.964;2022-11-15T04:58:42;36.10;;;27.90;;
53753;SDS011;39667;52.274;20.964;2022-11-15T05:01:27;37.80;;;29.10;;
53753;SDS011;39667;52.274;20.964;2022-11-15T05:04:12;34.60;;;26.90;;
53753;SDS011;39667;52.274;20.964;2022-11-15T05:07:05;34.10;;;27.60;;
53753;SDS011;39667;52.274;20.964;2022-11-15T05:09:50;32.50;;;26.40;;
53753;SDS011;39667;52.274;20.964;2022-11-15T05:12:35;36.20;;;28.70;;
53753;SDS011;39667;52.274;20.964;2022-11-15T05:15:20;35.90;;;28.70;;
53753;SDS011;39667;52.274;20.964;2022-11-15T05:18:04;36.30;;;28.50;;
53753;SDS011;39667;52.274;20.964;2022-11-15T05:20:49;38.60;;;30.10;;
53753;SDS011;39667;52.274;20.964;2022-11-15T05:23:34;37.20;;;27.50;;
53753;SDS011;39667;52.274;20.964;2022-11-15T05:26:18;34.50;;;26.80;;
53753;SDS011;39667;52.274;20.964;2022-11-15T05:29:04;36.50;;;27.90;;
53753;SDS011;39667;52.274;20.964;2022-11-15T05:31:48;40.00;;;28.80;;
53753;SDS011;39667;52.274;20.964;2022-11-15T05:34:33;37.10;;;27.40;;
53753;SDS011;39667;52.274;20.964;2022-11-15T05:37:18;37.20;;;27.20;;
53753;SDS011;39667;52.274;20.964;2022-11-15T05:40:03;41.10;;;30.00;;
53753;SDS011;39667;52.274;20.964;2022-11-15T05:42:48;40.10;;;30.20;;
53753;SDS011;39667;52.274;20.964;2022-11-15T05:45:32;39.50;;;28.70;;
53753;SDS011;39667;52.274;20.964;2022-11-15T05:48:19;37.70;;;27.10;;
53753;SDS011;39667;52.274;20.964;2022-11-15T05:51:04;38.30;;;27.70;;
53753;SDS011;39667;52.274;20.964;2022-11-15T05:53:51;42.30;;;29.30;;
53753;SDS011;39667;52.274;20.964;2022-11-15T05:59:22;42.00;;;27.80;;
53753;SDS011;39667;52.274;20.964;2022-11-15T06:02:08;33.10;;;24.70;;
53753;SDS011;39667;52.274;20.964;2022-11-15T06:04:53;35.50;;;26.70;;
53753;SDS011;39667;52.274;20.964;2022-11-15T06:07:38;38.40;;;27.10;;
53753;SDS011;39667;52.274;20.964;2022-11-15T06:10:22;38.10;;;27.40;;
53753;SDS011;39667;52.274;20.964;2022-11-15T06:13:07;38.40;;;27.60;;
53753;SDS011;39667;52.274;20.964;2022-11-15T06:15:54;40.70;;;28.80;;
53753;SDS011;39667;52.274;20.964;2022-11-15T06:18:40;35.60;;;26.80;;
53753;SDS011;39667;52.274;20.964;2022-11-15T06:21:25;35.10;;;25.00;;
53753;SDS011;39667;52.274;20.964;2022-11-15T06:24:12;36.10;;;25.90;;
53753;SDS011;39667;52.274;20.964;2022-11-15T06:26:56;32.80;;;23.60;;
53753;SDS011;39667;52.274;20.964;2022-11-15T06:29:42;33.80;;;24.60;;
53753;SDS011;39667;52.274;20.964;2022-11-15T06:32:28;31.10;;;22.70;;
53753;SDS011;39667;52.274;20.964;2022-11-15T06:35:14;28.90;;;22.50;;
53753;SDS011;39667;52.274;20.964;2022-11-15T06:42:27;32.50;;;23.30;;
53753;SDS011;39667;52.274;20.964;2022-11-15T06:45:12;32.40;;;22.90;;
53753;SDS011;39667;52.274;20.964;2022-11-15T06:47:57;40.40;;;26.60;;
53753;SDS011;39667;52.274;20.964;2022-11-15T06:50:49;38.40;;;25.30;;
53753;SDS011;39667;52.274;20.964;2022-11-15T06:53:35;34.50;;;26.10;;
53753;SDS011;39667;52.274;20.964;2022-11-15T06:56:20;29.30;;;23.30;;
53753;SDS011;39667;52.274;20.964;2022-11-15T06:59:05;29.60;;;22.40;;
53753;SDS011;39667;52.274;20.964;2022-11-15T07:01:49;32.60;;;23.90;;
53753;SDS011;39667;52.274;20.964;2022-11-15T07:13:42;33.30;;;23.00;;
53753;SDS011;39667;52.274;20.964;2022-11-15T07:39:00;29.00;;;19.60;;
53753;SDS011;39667;52.274;20.964;2022-11-15T07:46:13;31.10;;;22.50;;
53753;SDS011;39667;52.274;20.964;2022-11-15T07:48:58;28.80;;;21.50;;
53753;SDS011;39667;52.274;20.964;2022-11-15T07:56:05;25.00;;;18.50;;
53753;SDS011;39667;52.274;20.964;2022-11-15T07:58:52;29.50;;;20.90;;
53753;SDS011;39667;52.274;20.964;2022-11-15T08:01:37;27.80;;;20.90;;
53753;SDS011;39667;52.274;20.964;2022-11-15T08:05:13;28.00;;;20.30;;
53753;SDS011;39667;52.274;20.964;2022-11-15T08:12:31;25.60;;;19.50;;
53753;SDS011;39667;52.274;20.964;2022-11-15T08:28:38;33.00;;;22.10;;
53753;SDS011;39667;52.274;20.964;2022-11-15T08:40:11;31.30;;;20.80;;
53753;SDS011;39667;52.274;20.964;2022-11-15T08:42:58;26.40;;;21.10;;
53753;SDS011;39667;52.274;20.964;2022-11-15T08:45:46;30.90;;;22.10;;
53753;SDS011;39667;52.274;20.964;2022-11-15T08:57:28;33.80;;;23.30;;
53753;SDS011;39667;52.274;20.964;2022-11-15T09:09:09;27.90;;;21.20;;
53753;SDS011;39667;52.274;20.964;2022-11-15T09:16:21;28.20;;;21.50;;
53753;SDS011;39667;52.274;20.964;2022-11-15T09:28:05;28.60;;;21.60;;
53753;SDS011;39667;52.274;20.964;2022-11-15T09:44:20;31.00;;;21.70;;
53753;SDS011;39667;52.274;20.964;2022-11-15T10:06:01;26.30;;;22.00;;
53753;SDS011;39667;52.274;20.964;2022-11-15T10:11:15;25.10;;;19.70;;
53753;SDS011;39667;52.274;20.964;2022-11-15T10:14:15;26.10;;;21.00;;
53753;SDS011;39667;52.274;20.964;2022-11-15T10:19:28;28.30;;;21.80;;
53753;SDS011;39667;52.274;20.964;2022-11-15T10:33:34;28.10;;;22.70;;
53753;SDS011;39667;52.274;20.964;2022-11-15T10:45:51;27.70;;;21.60;;
53753;SDS011;39667;52.274;20.964;2022-11-15T10:48:20;30.30;;;23.70;;
53753;SDS011;39667;52.274;20.964;2022-11-15T10:50:48;32.10;;;25.20;;
53753;SDS011;39667;52.274;20.964;2022-11-15T10:53:23;31.70;;;24.80;;
53753;SDS011;39667;52.274;20.964;2022-11-15T11:07:19;28.20;;;23.90;;
53753;SDS011;39667;52.274;20.964;2022-11-15T11:18:41;34.40;;;25.30;;
53753;SDS011;39667;52.274;20.964;2022-11-15T11:37:24;39.50;;;29.40;;
53753;SDS011;39667;52.274;20.964;2022-11-15T11:44:40;33.40;;;26.30;;
53753;SDS011;39667;52.274;20.964;2022-11-15T11:56:12;36.30;;;27.60;;
53753;SDS011;39667;52.274;20.964;2022-11-15T11:58:45;36.50;;;27.30;;
53753;SDS011;39667;52.274;20.964;2022-11-15T12:15:51;36.40;;;29.80;;
53753;SDS011;39667;52.274;20.964;2022-11-15T12:22:43;35.10;;;26.50;;
53753;SDS011;39667;52.274;20.964;2022-11-15T12:32:27;35.70;;;28.30;;
53753;SDS011;39667;52.274;20.964;2022-11-15T12:39:16;36.70;;;27.90;;
53753;SDS011;39667;52.274;20.964;2022-11-15T12:58:27;35.40;;;28.70;;
53753;SDS011;39667;52.274;20.964;2022-11-15T13:14:56;33.90;;;26.60;;
53753;SDS011;39667;52.274;20.964;2022-11-15T13:17:25;37.20;;;29.80;;
53753;SDS011;39667;52.274;20.964;2022-11-15T13:20:02;35.40;;;28.00;;
53753;SDS011;39667;52.274;20.964;2022-11-15T13:25:39;36.70;;;28.80;;
53753;SDS011;39667;52.274;20.964;2022-11-15T13:31:02;40.30;;;31.60;;
53753;SDS011;39667;52.274;20.964;2022-11-15T13:38:17;36.60;;;29.30;;
53753;SDS011;39667;52.274;20.964;2022-11-15T14:01:22;35.50;;;28.30;;
53753;SDS011;39667;52.274;20.964;2022-11-15T14:03:58;38.30;;;29.50;;
53753;SDS011;39667;52.274;20.964;2022-11-15T14:06:26;36.60;;;27.90;;
53753;SDS011;39667;52.274;20.964;2022-11-15T14:09:03;36.20;;;29.50;;
53753;SDS011;39667;52.274;20.964;2022-11-15T14:11:52;34.30;;;29.30;;
53753;SDS011;39667;52.274;20.964;2022-11-15T14:18:52;31.80;;;25.70;;
53753;SDS011;39667;52.274;20.964;2022-11-15T14:25:51;36.30;;;29.30;;
53753;SDS011;39667;52.274;20.964;2022-11-15T14:30:48;41.60;;;29.80;;
53753;SDS011;39667;52.274;20.964;2022-11-15T14:39:19;36.00;;;28.50;;
53753;SDS011;39667;52.274;20.964;2022-11-15T14:41:45;33.80;;;26.60;;
53753;SDS011;39667;52.274;20.964;2022-11-15T14:51:58;43.60;;;31.20;;
53753;SDS011;39667;52.274;20.964;2022-11-15T14:54:24;36.60;;;27.90;;
53753;SDS011;39667;52.274;20.964;2022-11-15T14:56:50;37.50;;;27.20;;
53753;SDS011;39667;52.274;20.964;2022-11-15T14:59:16;37.10;;;27.10;;
53753;SDS011;39667;52.274;20.964;2022-11-15T15:01:42;37.80;;;26.10;;
53753;SDS011;39667;52.274;20.964;2022-11-15T15:04:09;33.10;;;26.60;;
53753;SDS011;39667;52.274;20.964;2022-11-15T15:06:36;31.80;;;25.30;;
53753;SDS011;39667;52.274;20.964;2022-11-15T15:09:02;36.80;;;26.30;;
53753;SDS011;39667;52.274;20.964;2022-11-15T15:11:31;37.10;;;29.20;;
53753;SDS011;39667;52.274;20.964;2022-11-15T15:13:57;33.90;;;26.80;;
53753;SDS011;39667;52.274;20.964;2022-11-15T15:16:26;37.20;;;27.20;;
53753;SDS011;39667;52.274;20.964;2022-11-15T15:18:52;37.90;;;28.90;;
53753;SDS011;39667;52.274;20.964;2022-11-15T15:21:22;40.70;;;28.60;;
53753;SDS011;39667;52.274;20.964;2022-11-15T15:23:51;39.80;;;29.10;;
53753;SDS011;39667;52.274;20.964;2022-11-15T15:26:19;42.40;;;31.70;;
53753;SDS011;39667;52.274;20.964;2022-11-15T15:28:46;39.00;;;30.00;;
53753;SDS011;39667;52.274;20.964;2022-11-15T15:31:14;43.90;;;30.20;;
53753;SDS011;39667;52.274;20.964;2022-11-15T15:33:40;36.80;;;28.00;;
53753;SDS011;39667;52.274;20.964;2022-11-15T15:36:13;36.80;;;28.00;;
53753;SDS011;39667;52.274;20.964;2022-11-15T15:38:39;36.60;;;27.90;;
53753;SDS011;39667;52.274;20.964;2022-11-15T15:41:10;39.60;;;29.90;;
53753;SDS011;39667;52.274;20.964;2022-11-15T15:43:37;39.80;;;29.80;;
53753;SDS011;39667;52.274;20.964;2022-11-15T15:46:03;39.40;;;30.40;;
53753;SDS011;39667;52.274;20.964;2022-11-15T15:48:30;40.30;;;29.00;;
53753;SDS011;39667;52.274;20.964;2022-11-15T15:50:56;44.10;;;30.90;;
53753;SDS011;39667;52.274;20.964;2022-11-15T15:53:22;36.30;;;30.00;;
53753;SDS011;39667;52.274;20.964;2022-11-15T15:55:48;43.90;;;31.80;;
53753;SDS011;39667;52.274;20.964;2022-11-15T15:58:15;43.00;;;31.90;;
53753;SDS011;39667;52.274;20.964;2022-11-15T16:00:41;44.20;;;32.70;;
53753;SDS011;39667;52.274;20.964;2022-11-15T16:03:07;47.20;;;33.30;;
53753;SDS011;39667;52.274;20.964;2022-11-15T16:05:33;42.20;;;30.10;;
53753;SDS011;39667;52.274;20.964;2022-11-15T16:07:59;46.70;;;32.10;;
53753;SDS011;39667;52.274;20.964;2022-11-15T16:10:26;45.10;;;31.60;;
53753;SDS011;39667;52.274;20.964;2022-11-15T16:12:54;44.70;;;33.30;;
53753;SDS011;39667;52.274;20.964;2022-11-15T16:15:22;48.00;;;34.70;;
53753;SDS011;39667;52.274;20.964;2022-11-15T16:17:50;40.50;;;32.20;;
53753;SDS011;39667;52.274;20.964;2022-11-15T16:20:37;44.60;;;33.10;;
53753;SDS011;39667;52.274;20.964;2022-11-15T16:23:16;42.30;;;31.40;;
53753;SDS011;39667;52.274;20.964;2022-11-15T16:25:49;42.40;;;30.20;;
53753;SDS011;39667;52.274;20.964;2022-11-15T16:28:22;42.10;;;30.70;;
53753;SDS011;39667;52.274;20.964;2022-11-15T16:30:58;42.90;;;30.90;;
53753;SDS011;39667;52.274;20.964;2022-11-15T16:33:25;41.40;;;30.20;;
53753;SDS011;39667;52.274;20.964;2022-11-15T16:35:52;41.00;;;30.90;;
53753;SDS011;39667;52.274;20.964;2022-11-15T16:38:18;46.10;;;32.10;;
53753;SDS011;39667;52.274;20.964;2022-11-15T16:40:44;38.80;;;28.50;;
53753;SDS011;39667;52.274;20.964;2022-11-15T16:43:10;41.00;;;28.30;;
53753;SDS011;39667;52.274;20.964;2022-11-15T16:45:36;38.00;;;27.10;;
53753;SDS011;39667;52.274;20.964;2022-11-15T16:48:02;46.30;;;28.80;;
53753;SDS011;39667;52.274;20.964;2022-11-15T16:50:30;39.70;;;28.90;;
53753;SDS011;39667;52.274;20.964;2022-11-15T16:52:59;42.50;;;29.50;;
53753;SDS011;39667;52.274;20.964;2022-11-15T16:55:28;46.60;;;30.60;;
53753;SDS011;39667;52.274;20.964;2022-11-15T16:57:55;48.60;;;30.70;;
53753;SDS011;39667;52.274;20.964;2022-11-15T17:00:26;47.00;;;30.30;;
53753;SDS011;39667;52.274;20.964;2022-11-15T17:02:52;48.90;;;31.50;;
53753;SDS011;39667;52.274;20.964;2022-11-15T17:05:19;44.40;;;31.30;;
53753;SDS011;39667;52.274;20.964;2022-11-15T17:07:48;44.20;;;30.70;;
53753;SDS011;39667;52.274;20.964;2022-11-15T17:10:22;41.80;;;28.20;;
53753;SDS011;39667;52.274;20.964;2022-11-15T17:12:50;43.00;;;29.00;;
53753;SDS011;39667;52.274;20.964;2022-11-15T17:15:17;45.10;;;28.20;;
53753;SDS011;39667;52.274;20.964;2022-11-15T17:17:43;48.40;;;27.70;;
53753;SDS011;39667;52.274;20.964;2022-11-15T17:20:13;40.70;;;26.60;;
53753;SDS011;39667;52.274;20.964;2022-11-15T17:22:40;41.20;;;26.90;;
53753;SDS011;39667;52.274;20.964;2022-11-15T17:25:07;36.70;;;25.50;;
53753;SDS011;39667;52.274;20.964;2022-11-15T17:27:33;35.50;;;24.40;;
53753;SDS011;39667;52.274;20.964;2022-11-15T17:29:59;33.80;;;23.30;;
53753;SDS011;39667;52.274;20.964;2022-11-15T17:32:25;34.60;;;23.60;;
53753;SDS011;39667;52.274;20.964;2022-11-15T17:34:51;31.80;;;22.90;;
53753;SDS011;39667;52.274;20.964;2022-11-15T17:37:17;34.40;;;23.90;;
53753;SDS011;39667;52.274;20.964;2022-11-15T17:39:43;32.90;;;22.30;;
53753;SDS011;39667;52.274;20.964;2022-11-15T17:42:10;33.00;;;23.70;;
53753;SDS011;39667;52.274;20.964;2022-11-15T17:44:36;37.80;;;25.20;;
53753;SDS011;39667;52.274;20.964;2022-11-15T17:47:01;33.90;;;23.70;;
53753;SDS011;39667;52.274;20.964;2022-11-15T17:49:27;31.20;;;21.30;;
53753;SDS011;39667;52.274;20.964;2022-11-15T17:51:53;33.50;;;23.90;;
53753;SDS011;39667;52.274;20.964;2022-11-15T17:54:19;35.90;;;22.60;;
53753;SDS011;39667;52.274;20.964;2022-11-15T17:56:46;34.00;;;23.90;;
53753;SDS011;39667;52.274;20.964;2022-11-15T17:59:11;31.60;;;23.40;;
53753;SDS011;39667;52.274;20.964;2022-11-15T18:01:43;31.30;;;22.10;;
53753;SDS011;39667;52.274;20.964;2022-11-15T18:04:09;33.30;;;23.90;;
53753;SDS011;39667;52.274;20.964;2022-11-15T18:06:36;32.20;;;22.30;;
53753;SDS011;39667;52.274;20.964;2022-11-15T18:09:03;30.40;;;22.50;;
53753;SDS011;39667;52.274;20.964;2022-11-15T18:11:30;33.30;;;23.10;;
53753;SDS011;39667;52.274;20.964;2022-11-15T18:13:58;27.40;;;21.10;;
53753;SDS011;39667;52.274;20.964;2022-11-15T18:16:28;33.70;;;22.80;;
53753;SDS011;39667;52.274;20.964;2022-11-15T18:18:55;31.20;;;23.20;;
53753;SDS011;39667;52.274;20.964;2022-11-15T18:21:24;29.60;;;21.90;;
53753;SDS011;39667;52.274;20.964;2022-11-15T18:23:52;29.80;;;22.00;;
53753;SDS011;39667;52.274;20.964;2022-11-15T18:26:20;33.00;;;22.10;;
53753;SDS011;39667;52.274;20.964;2022-11-15T18:28:53;30.00;;;22.70;;
53753;SDS011;39667;52.274;20.964;2022-11-15T18:31:21;30.70;;;22.50;;
53753;SDS011;39667;52.274;20.964;2022-11-15T18:33:49;33.10;;;24.10;;
53753;SDS011;39667;52.274;20.964;2022-11-15T18:36:18;32.90;;;23.60;;
53753;SDS011;39667;52.274;20.964;2022-11-15T18:38:59;33.50;;;22.40;;
53753;SDS011;39667;52.274;20.964;2022-11-15T18:41:30;30.50;;;21.10;;
53753;SDS011;39667;52.274;20.964;2022-11-15T18:43:58;28.90;;;20.00;;
53753;SDS011;39667;52.274;20.964;2022-11-15T18:46:27;25.00;;;18.90;;
53753;SDS011;39667;52.274;20.964;2022-11-15T18:48:57;26.20;;;17.70;;
53753;SDS011;39667;52.274;20.964;2022-11-15T18:51:25;24.30;;;18.70;;
53753;SDS011;39667;52.274;20.964;2022-11-15T18:53:55;23.60;;;18.40;;
53753;SDS011;39667;52.274;20.964;2022-11-15T18:56:25;26.10;;;18.70;;
53753;SDS011;39667;52.274;20.964;2022-11-15T18:58:53;25.90;;;18.80;;
53753;SDS011;39667;52.274;20.964;2022-11-15T19:01:22;26.60;;;19.10;;
53753;SDS011;39667;52.274;20.964;2022-11-15T19:03:50;25.90;;;19.30;;
53753;SDS011;39667;52.274;20.964;2022-11-15T19:06:28;26.40;;;19.20;;
53753;SDS011;39667;52.274;20.964;2022-11-15T19:08:54;29.60;;;20.30;;
53753;SDS011;39667;52.274;20.964;2022-11-15T19:11:23;29.20;;;20.10;;
53753;SDS011;39667;52.274;20.964;2022-11-15T19:13:53;25.70;;;18.50;;
53753;SDS011;39667;52.274;20.964;2022-11-15T19:16:21;27.00;;;19.60;;
53753;SDS011;39667;52.274;20.964;2022-11-15T19:18:51;27.00;;;19.20;;
53753;SDS011;39667;52.274;20.964;2022-11-15T19:21:25;27.00;;;20.00;;
53753;SDS011;39667;52.274;20.964;2022-11-15T19:23:52;29.00;;;20.00;;
53753;SDS011;39667;52.274;20.964;2022-11-15T19:26:22;22.00;;;15.90;;
53753;SDS011;39667;52.274;20.964;2022-11-15T19:28:53;25.50;;;17.50;;
53753;SDS011;39667;52.274;20.964;2022-11-15T19:31:21;25.10;;;17.80;;
53753;SDS011;39667;52.274;20.964;2022-11-15T19:33:49;22.60;;;16.50;;
53753;SDS011;39667;52.274;20.964;2022-11-15T19:36:16;21.00;;;16.00;;
53753;SDS011;39667;52.274;20.964;2022-11-15T19:38:48;20.90;;;16.00;;
53753;SDS011;39667;52.274;20.964;2022-11-15T19:41:15;18.70;;;15.10;;
53753;SDS011;39667;52.274;20.964;2022-11-15T19:43:42;20.70;;;15.00;;
53753;SDS011;39667;52.274;20.964;2022-11-15T19:46:10;19.00;;;16.10;;
53753;SDS011;39667;52.274;20.964;2022-11-15T19:48:37;20.50;;;15.80;;
53753;SDS011;39667;52.274;20.964;2022-11-15T19:51:04;17.40;;;14.20;;
53753;SDS011;39667;52.274;20.964;2022-11-15T19:53:32;18.30;;;14.60;;
53753;SDS011;39667;52.274;20.964;2022-11-15T19:56:02;18.60;;;15.30;;
53753;SDS011;39667;52.274;20.964;2022-11-15T19:58:30;16.60;;;13.80;;
53753;SDS011;39667;52.274;20.964;2022-11-15T20:03:30;19.20;;;14.50;;
53753;SDS011;39667;52.274;20.964;2022-11-15T20:06:05;17.10;;;14.80;;
53753;SDS011;39667;52.274;20.964;2022-11-15T20:08:36;23.60;;;16.20;;
53753;SDS011;39667;52.274;20.964;2022-11-15T20:11:03;12.90;;;14.00;;
53753;SDS011;39667;52.274;20.964;2022-11-15T20:13:30;18.50;;;14.50;;
53753;SDS011;39667;52.274;20.964;2022-11-15T20:15:56;18.00;;;14.80;;
53753;SDS011;39667;52.274;20.964;2022-11-15T20:18:23;21.60;;;15.40;;
53753;SDS011;39667;52.274;20.964;2022-11-15T20:20:51;22.60;;;17.50;;
53753;SDS011;39667;52.274;20.964;2022-11-15T20:23:21;23.90;;;17.40;;
53753;SDS011;39667;52.274;20.964;2022-11-15T20:25:47;22.20;;;16.30;;
53753;SDS011;39667;52.274;20.964;2022-11-15T20:28:15;24.60;;;18.00;;
53753;SDS011;39667;52.274;20.964;2022-11-15T20:30:43;28.40;;;13.70;;
53753;SDS011;39667;52.274;20.964;2022-11-15T20:33:11;21.50;;;16.00;;
53753;SDS011;39667;52.274;20.964;2022-11-15T20:35:37;18.00;;;15.30;;
53753;SDS011;39667;52.274;20.964;2022-11-15T20:38:05;19.50;;;15.00;;
53753;SDS011;39667;52.274;20.964;2022-11-15T20:40:31;19.20;;;15.20;;
53753;SDS011;39667;52.274;20.964;2022-11-15T20:42:57;18.60;;;14.50;;
53753;SDS011;39667;52.274;20.964;2022-11-15T20:45:24;20.10;;;16.20;;
53753;SDS011;39667;52.274;20.964;2022-11-15T20:47:50;18.80;;;15.00;;
53753;SDS011;39667;52.274;20.964;2022-11-15T20:50:19;21.00;;;15.50;;
53753;SDS011;39667;52.274;20.964;2022-11-15T20:53:06;21.70;;;15.90;;
53753;SDS011;39667;52.274;20.964;2022-11-15T20:55:32;20.50;;;15.20;;
53753;SDS011;39667;52.274;20.964;2022-11-15T20:57:58;18.40;;;14.10;;
53753;SDS011;39667;52.274;20.964;2022-11-15T21:00:24;15.70;;;14.00;;
53753;SDS011;39667;52.274;20.964;2022-11-15T21:02:50;19.30;;;14.20;;
53753;SDS011;39667;52.274;20.964;2022-11-15T21:05:17;17.60;;;13.70;;
53753;SDS011;39667;52.274;20.964;2022-11-15T21:07:43;17.60;;;14.50;;
53753;SDS011;39667;52.274;20.964;2022-11-15T21:10:10;17.30;;;13.90;;
53753;SDS011;39667;52.274;20.964;2022-11-15T21:12:54;17.80;;;13.30;;
53753;SDS011;39667;52.274;20.964;2022-11-15T21:15:20;18.00;;;14.30;;
53753;SDS011;39667;52.274;20.964;2022-11-15T21:17:47;18.60;;;14.20;;
53753;SDS011;39667;52.274;20.964;2022-11-15T21:20:13;17.60;;;13.70;;
53753;SDS011;39667;52.274;20.964;2022-11-15T21:22:41;18.80;;;14.70;;